Time;durP1;ratioP1;P1;durP2;ratioP2;P2;SDS_P1;SDS_P2;PMS_P1;PMS_P2;Temp;Humidity;BMP_temperature;BMP_pressure;BME280_temperature;BME280_humidity;BME280_pressure;Samples;Min_cycle;Max_cycle;Signal;HPM_P1;HPM_P2
2023/05/04 00:00:17;;;;;;;5.85;3.97;;;6.10;99.90;;;;;;5041191;28;20090;-77
2023/05/04 00:02:43;;;;;;;6.05;4.35;;;6.10;99.90;;;;;;5038762;28;20049;-77
2023/05/04 00:05:11;;;;;;;7.78;4.20;;;6.10;99.90;;;;;;5040875;28;20053;-77
2023/05/04 00:07:36;;;;;;;5.82;3.90;;;6.10;99.90;;;;;;5040987;28;20077;-77
2023/05/04 00:10:02;;;;;;;9.15;6.03;;;6.00;99.90;;;;;;5041553;28;20073;-77
2023/05/04 00:12:27;;;;;;;8.80;4.35;;;6.00;99.90;;;;;;5037914;28;20041;-77
2023/05/04 00:14:53;;;;;;;8.85;4.40;;;5.90;99.90;;;;;;5038837;28;20998;-78
2023/05/04 00:17:18;;;;;;;6.18;3.90;;;5.90;99.90;;;;;;5041389;28;20041;-77
2023/05/04 00:19:45;;;;;;;10.80;5.38;;;5.90;99.90;;;;;;5039201;28;20545;-77
2023/05/04 00:22:10;;;;;;;7.63;4.53;;;6.00;99.90;;;;;;5048271;28;20095;-78
2023/05/04 00:24:36;;;;;;;11.65;4.88;;;5.90;99.90;;;;;;5045583;28;20045;-77
2023/05/04 00:27:02;;;;;;;6.75;4.30;;;5.90;99.90;;;;;;5048152;28;20037;-77
2023/05/04 00:29:28;;;;;;;7.75;4.35;;;5.90;99.90;;;;;;5044982;28;20072;-77
2023/05/04 00:31:53;;;;;;;8.00;4.93;;;5.90;99.90;;;;;;5046808;28;20075;-77
2023/05/04 00:34:19;;;;;;;7.45;4.63;;;5.90;99.90;;;;;;5047000;28;21051;-77
2023/05/04 00:36:45;;;;;;;10.43;4.85;;;5.90;99.90;;;;;;5050840;28;20037;-77
2023/05/04 00:39:10;;;;;;;5.65;3.80;;;5.90;99.90;;;;;;5046909;28;20091;-77
2023/05/04 00:41:36;;;;;;;14.88;5.63;;;5.90;99.90;;;;;;5049553;28;20515;-78
2023/05/04 00:44:03;;;;;;;6.93;4.30;;;5.80;99.90;;;;;;5047765;28;20491;-77
2023/05/04 00:46:29;;;;;;;7.25;4.93;;;5.90;99.90;;;;;;5045566;28;20139;-77
2023/05/04 00:48:55;;;;;;;9.75;5.50;;;5.80;99.90;;;;;;5080073;28;20040;-77
2023/05/04 00:51:23;;;;;;;10.80;4.65;;;5.90;99.90;;;;;;5049038;28;20106;-77
2023/05/04 00:53:49;;;;;;;8.98;4.93;;;5.80;99.90;;;;;;5049946;28;20120;-77
2023/05/04 00:56:15;;;;;;;9.77;4.78;;;5.80;99.90;;;;;;5046263;28;20812;-77
2023/05/04 00:58:41;;;;;;;8.90;5.25;;;5.70;99.90;;;;;;5079012;28;20036;-78
2023/05/04 01:01:07;;;;;;;9.32;5.75;;;5.80;99.90;;;;;;5046117;28;20490;-78
2023/05/04 01:03:33;;;;;;;7.82;4.82;;;5.70;99.90;;;;;;5049132;28;20178;-77
2023/05/04 01:06:25;;;;;;;8.43;5.63;;;5.70;99.90;;;;;;5048603;28;20100;-78
2023/05/04 01:09:16;;;;;;;14.20;5.80;;;5.70;99.90;;;;;;5048072;28;20048;-77
2023/05/04 01:11:57;;;;;;;15.07;5.18;;;5.60;99.90;;;;;;5045180;28;20053;-78
2023/05/04 01:14:23;;;;;;;7.15;5.00;;;5.70;99.90;;;;;;5051262;28;20576;-77
2023/05/04 01:16:53;;;;;;;8.35;5.60;;;5.70;99.90;;;;;;5044635;28;20663;-77
2023/05/04 01:19:19;;;;;;;7.90;5.30;;;5.60;99.90;;;;;;5046115;28;20040;-77
2023/05/04 01:21:45;;;;;;;10.85;5.63;;;5.60;99.90;;;;;;5047577;28;20047;-77
2023/05/04 01:24:11;;;;;;;9.80;5.47;;;5.70;99.90;;;;;;5045345;28;20465;-77
2023/05/04 01:26:40;;;;;;;10.38;5.88;;;5.70;99.90;;;;;;5044070;28;20072;-77
2023/05/04 01:29:20;;;;;;;10.80;5.30;;;5.70;99.90;;;;;;5047548;28;20123;-77
2023/05/04 01:31:47;;;;;;;7.13;5.00;;;5.60;99.90;;;;;;5046551;28;20044;-77
2023/05/04 01:34:14;;;;;;;8.52;5.57;;;5.60;99.90;;;;;;5042256;28;20057;-77
2023/05/04 01:36:42;;;;;;;10.30;5.00;;;5.60;99.90;;;;;;5073856;28;20055;-78
2023/05/04 01:39:08;;;;;;;12.15;5.15;;;5.70;99.90;;;;;;5048439;28;20049;-77
2023/05/04 01:41:35;;;;;;;11.48;5.10;;;5.60;99.90;;;;;;5042505;28;20033;-77
2023/05/04 01:44:01;;;;;;;9.00;5.43;;;5.60;99.90;;;;;;5043758;28;20049;-77
2023/05/04 01:46:27;;;;;;;9.30;5.78;;;5.60;99.90;;;;;;5042029;28;20045;-77
2023/05/04 01:48:52;;;;;;;9.13;5.15;;;5.70;99.90;;;;;;5042779;28;20047;-77
2023/05/04 01:51:18;;;;;;;8.70;5.32;;;5.60;99.90;;;;;;5043842;28;20396;-77
2023/05/04 01:53:44;;;;;;;9.55;5.72;;;5.60;99.90;;;;;;5046797;28;20044;-77
2023/05/04 01:56:09;;;;;;;10.50;5.05;;;5.60;99.90;;;;;;5042407;28;20403;-77
2023/05/04 01:58:35;;;;;;;8.15;5.57;;;5.60;99.90;;;;;;5044577;28;20094;-77
2023/05/04 02:01:00;;;;;;;11.07;5.35;;;5.60;99.90;;;;;;5041398;28;20503;-77
2023/05/04 02:03:26;;;;;;;11.63;5.57;;;5.60;99.90;;;;;;5040874;28;20385;-77
2023/05/04 02:05:52;;;;;;;9.88;5.57;;;5.60;99.90;;;;;;5041131;28;20045;-77
2023/05/04 02:08:18;;;;;;;12.75;6.78;;;5.60;99.90;;;;;;5041474;28;20087;-77
2023/05/04 02:10:43;;;;;;;10.85;5.57;;;5.60;99.90;;;;;;5041460;28;20053;-77
2023/05/04 02:13:09;;;;;;;9.55;5.45;;;5.60;99.90;;;;;;5042079;28;20094;-77
2023/05/04 02:15:35;;;;;;;9.68;5.65;;;5.60;99.90;;;;;;5043974;28;20040;-77
2023/05/04 02:18:00;;;;;;;9.50;6.10;;;5.60;99.90;;;;;;5041487;28;20133;-77
2023/05/04 02:20:26;;;;;;;12.82;6.15;;;5.60;99.90;;;;;;5041289;28;20037;-77
2023/05/04 02:22:51;;;;;;;9.88;5.68;;;5.60;99.90;;;;;;5041595;28;20047;-77
2023/05/04 02:25:17;;;;;;;11.00;5.43;;;5.60;99.90;;;;;;5044438;28;20072;-77
2023/05/04 02:27:42;;;;;;;10.27;6.00;;;5.60;99.90;;;;;;5061978;28;20098;-77
2023/05/04 02:30:08;;;;;;;7.60;5.93;;;5.60;99.90;;;;;;5040900;28;20055;-77
2023/05/04 02:32:35;;;;;;;7.97;5.47;;;5.50;99.90;;;;;;5060759;28;20051;-77
2023/05/04 02:35:00;;;;;;;11.05;6.05;;;5.60;99.90;;;;;;5035873;28;20037;-77
2023/05/04 02:37:26;;;;;;;11.88;6.07;;;5.60;99.90;;;;;;5041406;28;20372;-77
2023/05/04 02:39:51;;;;;;;10.60;5.82;;;5.50;99.90;;;;;;5044825;28;20098;-77
2023/05/04 02:42:18;;;;;;;8.65;5.72;;;5.60;99.90;;;;;;5040537;28;20041;-77
2023/05/04 02:44:43;;;;;;;10.15;6.13;;;5.50;99.90;;;;;;5040666;28;20052;-77
2023/05/04 02:47:09;;;;;;;7.57;5.88;;;5.50;99.90;;;;;;5041479;28;20044;-77
2023/05/04 02:49:34;;;;;;;14.85;6.43;;;5.60;99.90;;;;;;5055637;28;20136;-77
2023/05/04 02:52:00;;;;;;;10.63;6.05;;;5.50;99.90;;;;;;5044101;28;20491;-77
2023/05/04 02:54:26;;;;;;;12.00;6.32;;;5.60;99.90;;;;;;5059176;28;20041;-77
2023/05/04 02:56:51;;;;;;;10.52;6.13;;;5.60;99.90;;;;;;5045555;28;20091;-77
2023/05/04 02:59:17;;;;;;;9.98;6.07;;;5.50;99.90;;;;;;5041072;28;20663;-77
2023/05/04 03:01:42;;;;;;;10.18;6.75;;;5.50;99.90;;;;;;5042426;28;20093;-77
2023/05/04 03:04:08;;;;;;;8.98;6.28;;;5.50;99.90;;;;;;5043375;28;20035;-77
2023/05/04 03:06:33;;;;;;;9.77;6.97;;;5.50;99.90;;;;;;5042881;28;20056;-77
2023/05/04 03:08:59;;;;;;;13.20;6.43;;;5.60;99.90;;;;;;5041512;28;20033;-77
2023/05/04 03:11:25;;;;;;;12.45;6.10;;;5.60;99.90;;;;;;5040821;28;20041;-77
2023/05/04 03:13:51;;;;;;;10.40;6.05;;;5.60;99.90;;;;;;5055287;28;20117;-77
2023/05/04 03:16:16;;;;;;;9.77;6.60;;;5.60;99.90;;;;;;5044361;28;20483;-77
2023/05/04 03:18:42;;;;;;;8.00;5.70;;;5.60;99.90;;;;;;5039488;28;20051;-77
2023/05/04 03:21:08;;;;;;;11.55;6.32;;;5.50;99.90;;;;;;5037284;28;20037;-77
2023/05/04 03:23:33;;;;;;;11.57;6.32;;;5.70;99.90;;;;;;5043388;28;20068;-77
2023/05/04 03:25:59;;;;;;;8.93;6.78;;;5.60;99.90;;;;;;5041783;28;20153;-77
2023/05/04 03:28:25;;;;;;;13.63;7.03;;;5.60;99.90;;;;;;5040814;28;20045;-77
2023/05/04 03:30:50;;;;;;;11.48;5.38;;;5.70;99.90;;;;;;5040314;28;20550;-76
2023/05/04 03:33:16;;;;;;;9.88;5.72;;;5.60;99.90;;;;;;5039471;28;20458;-77
2023/05/04 03:35:41;;;;;;;8.82;6.18;;;5.60;99.90;;;;;;5041326;28;20402;-77
2023/05/04 03:38:07;;;;;;;9.68;6.18;;;5.70;99.90;;;;;;5041395;28;20098;-77
2023/05/04 03:40:35;;;;;;;8.85;5.80;;;5.60;99.90;;;;;;5045110;28;20041;-77
2023/05/04 03:43:01;;;;;;;12.18;6.70;;;5.70;99.90;;;;;;5040507;28;20555;-77
2023/05/04 03:45:27;;;;;;;12.35;6.72;;;5.70;99.90;;;;;;5043747;28;20095;-77
2023/05/04 03:47:56;;;;;;;10.25;6.80;;;5.60;99.90;;;;;;5040093;28;20491;-77
2023/05/04 03:50:22;;;;;;;10.20;5.95;;;5.70;99.90;;;;;;5038328;28;20112;-77
2023/05/04 03:52:48;;;;;;;12.43;7.72;;;5.70;99.90;;;;;;5041128;28;20072;-77
2023/05/04 03:55:14;;;;;;;11.38;7.18;;;5.70;99.90;;;;;;5040990;28;20120;-77
2023/05/04 03:57:40;;;;;;;11.60;6.60;;;5.70;99.90;;;;;;5037396;28;20174;-77
2023/05/04 04:00:06;;;;;;;13.18;6.75;;;5.70;99.90;;;;;;5040411;28;20048;-77
2023/05/04 04:02:32;;;;;;;12.18;7.25;;;5.60;99.90;;;;;;5034659;28;20045;-77
2023/05/04 04:04:58;;;;;;;12.70;7.30;;;5.70;99.90;;;;;;5056230;28;20048;-77
2023/05/04 04:07:23;;;;;;;12.25;6.43;;;5.60;99.90;;;;;;5041135;28;20131;-77
2023/05/04 04:09:49;;;;;;;10.50;6.78;;;5.70;99.90;;;;;;5041718;28;20056;-77
2023/05/04 04:12:19;;;;;;;11.27;6.40;;;5.70;99.90;;;;;;5040823;28;20439;-76
2023/05/04 04:14:45;;;;;;;12.77;7.43;;;5.70;99.90;;;;;;5071470;28;20126;-77
2023/05/04 04:17:10;;;;;;;13.30;7.30;;;5.70;99.90;;;;;;5038560;28;21540;-77
2023/05/04 04:19:36;;;;;;;10.65;6.80;;;5.70;99.90;;;;;;5038655;28;20041;-77
2023/05/04 04:22:02;;;;;;;10.35;6.60;;;5.70;99.90;;;;;;5040294;28;20048;-77
2023/05/04 04:24:27;;;;;;;14.00;7.53;;;5.70;99.90;;;;;;5039689;28;20025;-77
2023/05/04 04:26:53;;;;;;;11.93;7.20;;;5.70;99.90;;;;;;5038615;28;20067;-77
2023/05/04 04:29:18;;;;;;;10.45;6.80;;;5.70;99.90;;;;;;5040144;28;20496;-77
2023/05/04 04:31:44;;;;;;;10.55;7.32;;;5.70;99.90;;;;;;5041608;28;20037;-77
2023/05/04 04:34:09;;;;;;;13.38;7.22;;;5.70;99.90;;;;;;5039583;28;20036;-77
2023/05/04 04:36:35;;;;;;;10.55;6.72;;;5.70;99.90;;;;;;5041048;28;20058;-77
2023/05/04 04:39:00;;;;;;;10.07;7.03;;;5.80;99.90;;;;;;5038348;28;20056;-77
2023/05/04 04:41:26;;;;;;;10.85;7.65;;;5.70;99.90;;;;;;5040312;28;20063;-77
2023/05/04 04:43:52;;;;;;;12.00;7.20;;;5.80;99.90;;;;;;5037486;28;20059;-77
2023/05/04 04:46:18;;;;;;;13.88;6.72;;;5.80;99.90;;;;;;5042058;28;20177;-77
2023/05/04 04:48:43;;;;;;;11.80;7.65;;;5.80;99.90;;;;;;5038431;28;20193;-77
2023/05/04 04:51:10;;;;;;;11.50;7.00;;;5.90;99.90;;;;;;5040067;28;20665;-77
2023/05/04 04:53:36;;;;;;;10.60;6.78;;;5.80;99.90;;;;;;5038024;28;20048;-77
2023/05/04 04:56:01;;;;;;;9.15;8.10;;;5.90;99.90;;;;;;5037521;28;20639;-77
2023/05/04 04:58:27;;;;;;;15.68;8.07;;;5.90;99.90;;;;;;5038793;28;20041;-77
2023/05/04 05:00:54;;;;;;;11.25;7.07;;;6.00;99.90;;;;;;5022577;28;20041;-77
2023/05/04 05:03:20;;;;;;;11.70;7.60;;;6.10;99.90;;;;;;5041249;28;20499;-77
2023/05/04 05:05:46;;;;;;;10.13;6.65;;;6.10;99.90;;;;;;5035481;28;20045;-77
2023/05/04 05:08:11;;;;;;;8.68;6.43;;;6.20;99.90;;;;;;5042276;28;20045;-77
2023/05/04 05:10:37;;;;;;;12.18;7.45;;;6.30;99.90;;;;;;5059946;28;20055;-78
2023/05/04 05:13:03;;;;;;;11.73;6.82;;;6.40;99.90;;;;;;5046826;28;20041;-79
2023/05/04 05:15:29;;;;;;;12.75;7.10;;;6.50;99.90;;;;;;5042689;28;20581;-79
2023/05/04 05:17:55;;;;;;;10.50;7.55;;;6.60;99.90;;;;;;5041097;28;20042;-81
2023/05/04 05:20:20;;;;;;;10.68;7.65;;;6.70;99.90;;;;;;5048845;28;20045;-79
2023/05/04 05:22:46;;;;;;;10.10;7.20;;;6.80;99.90;;;;;;5042616;28;20037;-80
2023/05/04 05:25:11;;;;;;;9.63;6.65;;;7.10;99.90;;;;;;5043700;28;20047;-80
2023/05/04 05:27:37;;;;;;;12.23;7.78;;;7.30;99.90;;;;;;5042489;28;20051;-81
2023/05/04 05:30:04;;;;;;;15.73;7.18;;;7.50;99.90;;;;;;5044002;28;20055;-80
2023/05/04 05:32:29;;;;;;;9.85;6.65;;;7.60;99.90;;;;;;5049899;28;20492;-80
2023/05/04 05:34:55;;;;;;;10.85;6.68;;;7.60;99.90;;;;;;5044812;28;20127;-80
2023/05/04 05:37:21;;;;;;;11.90;6.72;;;7.70;99.90;;;;;;5046074;28;20040;-80
2023/05/04 05:39:46;;;;;;;10.38;7.03;;;7.60;99.90;;;;;;5047454;28;20125;-79
2023/05/04 05:42:12;;;;;;;9.55;6.72;;;7.60;99.90;;;;;;5046378;28;20098;-79
2023/05/04 05:44:37;;;;;;;11.32;6.57;;;7.80;99.90;;;;;;5042449;28;20120;-79
2023/05/04 05:47:04;;;;;;;12.75;7.13;;;8.10;99.90;;;;;;5046086;28;20110;-80
2023/05/04 05:49:29;;;;;;;12.40;6.88;;;8.60;99.90;;;;;;5045272;28;20538;-80
2023/05/04 05:51:56;;;;;;;9.25;6.32;;;8.80;99.90;;;;;;5047173;28;20045;-79
2023/05/04 05:54:24;;;;;;;8.63;5.18;;;9.10;99.90;;;;;;5039811;28;20045;-79
2023/05/04 05:56:50;;;;;;;8.63;6.00;;;9.90;99.90;;;;;;5044036;28;20076;-80
2023/05/04 05:59:15;;;;;;;9.05;6.35;;;10.50;99.90;;;;;;5042536;28;20085;-80
2023/05/04 06:01:41;;;;;;;11.07;6.28;;;11.00;99.90;;;;;;5043071;28;20555;-79
2023/05/04 06:04:07;;;;;;;11.80;7.03;;;11.40;99.90;;;;;;5044310;28;20045;-80
2023/05/04 06:06:33;;;;;;;11.98;6.00;;;11.10;99.90;;;;;;5079574;28;20048;-78
2023/05/04 06:09:01;;;;;;;15.93;6.30;;;11.00;99.90;;;;;;5044624;28;20447;-80
2023/05/04 06:11:27;;;;;;;10.85;6.15;;;11.10;99.90;;;;;;5045069;28;20515;-79
2023/05/04 06:13:53;;;;;;;9.02;5.85;;;10.70;99.90;;;;;;5044421;28;20041;-80
2023/05/04 06:16:18;;;;;;;11.63;6.20;;;10.50;99.90;;;;;;5059382;28;20041;-78
2023/05/04 06:18:44;;;;;;;14.15;6.75;;;10.40;99.90;;;;;;5037332;28;20396;-81
2023/05/04 06:21:32;;;;;;;14.57;6.60;;;10.50;99.90;;;;;;5036289;28;20318;-81
2023/05/04 06:24:01;;;;;;;11.45;6.90;;;10.10;99.90;;;;;;5042093;28;20388;-79
2023/05/04 06:26:30;;;;;;;11.88;5.95;;;9.80;99.90;;;;;;5034194;28;20078;-80
2023/05/04 06:28:56;;;;;;;10.70;6.10;;;9.90;99.90;;;;;;5028728;28;20430;-79
2023/05/04 06:31:22;;;;;;;9.43;6.00;;;9.60;99.90;;;;;;5027142;28;20041;-80
2023/05/04 06:33:49;;;;;;;9.00;5.72;;;9.60;99.90;;;;;;5044204;28;20451;-79
2023/05/04 06:36:15;;;;;;;9.85;6.03;;;9.50;99.90;;;;;;5046328;28;20076;-80
2023/05/04 06:38:40;;;;;;;9.70;6.78;;;9.70;99.90;;;;;;5045291;28;20064;-80
2023/05/04 06:41:06;;;;;;;9.07;6.15;;;9.80;99.90;;;;;;5035078;28;20491;-80
2023/05/04 06:43:32;;;;;;;10.18;6.78;;;9.70;99.90;;;;;;5041808;28;20052;-80
2023/05/04 06:46:02;;;;;;;12.15;6.43;;;9.80;99.90;;;;;;5046944;28;20036;-80
2023/05/04 06:48:28;;;;;;;10.68;6.65;;;9.90;99.90;;;;;;5044998;28;20088;-81
2023/05/04 06:50:54;;;;;;;9.82;6.40;;;10.00;99.90;;;;;;5046838;28;20137;-81
2023/05/04 06:53:20;;;;;;;9.27;5.72;;;9.90;99.90;;;;;;5047822;28;20127;-80
2023/05/04 06:55:46;;;;;;;10.82;6.43;;;9.90;99.90;;;;;;5048359;28;20049;-80
2023/05/04 06:58:11;;;;;;;9.93;6.60;;;10.10;99.90;;;;;;5044104;28;20487;-81
2023/05/04 07:00:37;;;;;;;10.57;6.20;;;10.10;99.90;;;;;;5046080;28;20092;-79
2023/05/04 07:03:03;;;;;;;10.77;6.25;;;10.10;99.90;;;;;;5044791;28;20544;-80
2023/05/04 07:05:28;;;;;;;10.38;6.07;;;10.10;99.90;;;;;;5046346;28;20037;-81
2023/05/04 07:07:54;;;;;;;8.80;6.53;;;10.20;99.90;;;;;;5046882;28;20033;-81
2023/05/04 07:10:19;;;;;;;8.15;5.97;;;10.60;99.90;;;;;;5046820;28;20115;-79
2023/05/04 07:12:45;;;;;;;10.88;5.55;;;10.70;99.90;;;;;;5046219;28;20048;-80
2023/05/04 07:15:11;;;;;;;10.75;6.00;;;11.00;99.90;;;;;;5044580;28;20045;-80
2023/05/04 07:17:37;;;;;;;12.38;6.18;;;11.20;99.90;;;;;;5044718;28;20129;-80
2023/05/04 07:20:06;;;;;;;9.60;5.18;;;11.10;99.90;;;;;;5043311;28;20041;-80
2023/05/04 07:22:32;;;;;;;7.78;5.78;;;11.30;99.90;;;;;;5045462;28;20071;-79
2023/05/04 07:24:59;;;;;;;13.07;6.05;;;11.10;99.90;;;;;;5075031;28;20199;-79
2023/05/04 07:27:25;;;;;;;8.95;5.80;;;11.30;99.90;;;;;;5046505;28;20041;-81
2023/05/04 07:29:51;;;;;;;12.25;5.20;;;11.50;99.90;;;;;;5028973;28;20119;-80
2023/05/04 07:32:17;;;;;;;7.90;5.25;;;11.40;99.90;;;;;;5048661;28;20041;-81
2023/05/04 07:34:43;;;;;;;7.07;5.28;;;11.70;99.90;;;;;;5047446;28;20127;-80
2023/05/04 07:37:09;;;;;;;11.50;5.00;;;11.90;99.90;;;;;;5044684;28;20123;-81
2023/05/04 07:39:35;;;;;;;10.00;5.00;;;12.00;99.90;;;;;;5043800;28;20144;-80
2023/05/04 07:42:02;;;;;;;7.63;5.22;;;12.10;99.90;;;;;;5029914;28;20051;-79
2023/05/04 07:44:28;;;;;;;9.20;4.65;;;12.20;99.90;;;;;;5046616;28;20075;-80
2023/05/04 07:46:54;;;;;;;10.23;5.00;;;12.40;99.90;;;;;;5029088;28;20091;-80
2023/05/04 07:49:20;;;;;;;10.60;5.75;;;12.40;99.90;;;;;;5046093;28;20060;-80
2023/05/04 07:51:45;;;;;;;8.75;5.20;;;12.40;99.90;;;;;;5046603;28;20073;-80
2023/05/04 07:54:11;;;;;;;8.00;4.32;;;12.50;99.90;;;;;;5044550;28;20097;-80
2023/05/04 07:56:37;;;;;;;5.93;4.25;;;12.60;99.90;;;;;;5043320;28;20489;-80
2023/05/04 07:59:02;;;;;;;7.75;4.75;;;12.70;99.90;;;;;;5043955;28;20146;-80
2023/05/04 08:01:28;;;;;;;6.45;4.00;;;12.70;99.90;;;;;;5046205;28;20033;-80
2023/05/04 08:03:54;;;;;;;9.90;4.13;;;12.60;99.90;;;;;;5043635;28;20068;-81
2023/05/04 08:06:20;;;;;;;8.40;4.53;;;12.80;99.90;;;;;;5046384;28;20106;-80
2023/05/04 08:08:48;;;;;;;7.82;5.03;;;13.00;99.90;;;;;;5081103;28;20033;-81
2023/05/04 08:11:15;;;;;;;8.35;3.97;;;13.20;99.90;;;;;;5044935;28;20033;-80
2023/05/04 08:13:40;;;;;;;6.78;4.75;;;13.30;99.90;;;;;;5032052;28;20518;-81
2023/05/04 08:16:09;;;;;;;9.45;3.80;;;13.30;99.90;;;;;;5048549;28;20131;-78
2023/05/04 08:18:36;;;;;;;9.75;4.65;;;13.50;99.90;;;;;;5050710;28;20029;-80
2023/05/04 08:21:02;;;;;;;6.45;3.70;;;13.60;99.90;;;;;;5046710;28;20087;-81
2023/05/04 08:23:27;;;;;;;8.00;4.15;;;13.80;99.90;;;;;;5041043;28;20037;-81
2023/05/04 08:25:53;;;;;;;10.57;3.92;;;13.70;99.90;;;;;;5045031;28;20051;-80
2023/05/04 08:28:18;;;;;;;6.45;3.45;;;13.60;99.90;;;;;;5043490;28;20388;-80
2023/05/04 08:30:44;;;;;;;7.75;4.45;;;13.50;99.90;;;;;;5041253;28;20494;-80
2023/05/04 08:33:10;;;;;;;7.07;4.63;;;13.50;99.90;;;;;;5041693;28;20124;-80
2023/05/04 08:35:36;;;;;;;9.18;4.72;;;13.60;99.90;;;;;;5045954;28;20144;-80
2023/05/04 08:38:02;;;;;;;6.40;4.03;;;13.50;99.90;;;;;;5046998;28;20412;-79
2023/05/04 08:40:28;;;;;;;11.57;4.57;;;13.60;99.90;;;;;;5048444;28;20037;-81
2023/05/04 08:42:54;;;;;;;10.00;4.00;;;13.60;99.90;;;;;;5048784;28;20068;-81
2023/05/04 08:45:20;;;;;;;9.20;3.97;;;13.60;99.90;;;;;;5062924;28;20452;-81
2023/05/04 08:47:46;;;;;;;7.90;4.53;;;13.60;99.90;;;;;;5043603;28;20048;-82
2023/05/04 08:50:12;;;;;;;7.32;4.75;;;13.70;99.90;;;;;;5044648;28;20490;-81
2023/05/04 08:52:49;;;;;;;7.93;4.43;;;13.80;99.90;;;;;;5050393;28;20035;-81
2023/05/04 08:55:25;;;;;;;8.10;4.18;;;14.00;99.90;;;;;;5037853;28;20071;-82
2023/05/04 08:57:52;;;;;;;7.32;4.45;;;14.20;99.90;;;;;;5038700;28;20074;-80
2023/05/04 09:00:21;;;;;;;10.93;4.32;;;14.30;99.90;;;;;;5046803;28;20380;-81
2023/05/04 09:02:48;;;;;;;5.38;3.45;;;14.40;99.90;;;;;;5033052;28;20036;-81
2023/05/04 09:05:15;;;;;;;8.50;3.88;;;14.50;99.90;;;;;;5050883;28;20120;-80
2023/05/04 09:07:40;;;;;;;5.63;3.70;;;14.50;99.90;;;;;;5048908;28;20092;-81
2023/05/04 09:10:07;;;;;;;5.35;3.15;;;14.60;99.90;;;;;;5052707;28;20069;-81
2023/05/04 09:12:32;;;;;;;7.35;4.15;;;14.80;99.90;;;;;;5050024;28;20041;-79
2023/05/04 09:15:00;;;;;;;5.63;3.25;;;15.00;99.90;;;;;;5052482;28;20451;-81
2023/05/04 09:17:28;;;;;;;11.80;4.20;;;15.00;99.90;;;;;;5051523;28;20474;-81
2023/05/04 09:20:01;;;;;;;7.07;3.15;;;15.10;99.90;;;;;;5046301;28;20041;-80
2023/05/04 09:22:28;;;;;;;6.25;3.38;;;15.30;99.90;;;;;;5050113;28;20045;-81
2023/05/04 09:25:08;;;;;;;6.22;3.20;;;15.40;99.90;;;;;;5047667;28;20056;-81
2023/05/04 09:27:33;;;;;;;8.13;3.38;;;15.40;99.90;;;;;;5053237;28;20045;-82
2023/05/04 09:29:59;;;;;;;7.05;3.08;;;15.50;99.90;;;;;;5049580;28;20048;-81
2023/05/04 09:32:24;;;;;;;6.18;4.15;;;15.60;99.90;;;;;;5050475;28;20038;-81
2023/05/04 09:34:52;;;;;;;6.40;3.30;;;15.60;99.90;;;;;;5049456;28;20048;-80
2023/05/04 09:37:21;;;;;;;5.70;3.30;;;15.90;99.90;;;;;;5047222;28;20040;-80
2023/05/04 09:39:53;;;;;;;6.63;3.05;;;16.20;99.90;;;;;;5052674;28;20033;-81
2023/05/04 09:42:20;;;;;;;7.28;3.22;;;16.20;99.90;;;;;;5050011;28;20050;-80
2023/05/04 09:44:57;;;;;;;7.47;3.55;;;16.20;99.90;;;;;;5050344;28;20028;-79
2023/05/04 09:47:29;;;;;;;6.18;3.10;;;16.30;99.90;;;;;;5049948;28;20044;-78
2023/05/04 09:49:55;;;;;;;4.57;2.75;;;16.40;99.90;;;;;;5079496;28;20045;-81
2023/05/04 09:52:22;;;;;;;8.25;3.47;;;16.20;99.90;;;;;;5045606;28;20025;-81
2023/05/04 09:54:50;;;;;;;6.32;2.78;;;16.30;99.90;;;;;;5048386;28;20824;-81
2023/05/04 09:57:17;;;;;;;7.85;3.22;;;16.10;99.90;;;;;;5047377;28;20036;-81
2023/05/04 09:59:43;;;;;;;6.95;3.42;;;16.30;99.90;;;;;;5063364;28;20049;-81
2023/05/04 10:02:12;;;;;;;5.93;3.28;;;16.40;99.90;;;;;;5050022;28;20091;-81
2023/05/04 10:04:38;;;;;;;7.60;3.05;;;16.50;99.90;;;;;;5044180;28;20044;-81
2023/05/04 10:07:05;;;;;;;9.07;3.40;;;16.60;99.90;;;;;;5050043;28;20029;-81
2023/05/04 10:09:31;;;;;;;11.93;3.40;;;16.80;99.90;;;;;;5050657;28;20041;-80
2023/05/04 10:12:04;;;;;;;8.38;2.90;;;16.70;99.90;;;;;;5047185;28;20091;-81
2023/05/04 10:14:32;;;;;;;8.10;3.42;;;16.80;99.90;;;;;;5048661;28;20033;-81
2023/05/04 10:17:35;;;;;;;10.55;2.95;;;16.70;99.90;;;;;;5049866;28;20041;-81
2023/05/04 10:20:49;;;;;;;6.57;2.90;;;16.80;99.90;;;;;;5049040;28;20063;-81
2023/05/04 10:23:37;;;;;;;9.45;3.85;;;16.60;99.90;;;;;;5064864;28;20487;-81
2023/05/04 10:26:21;;;;;;;9.90;2.92;;;16.80;99.90;;;;;;5032689;28;20498;-78
2023/05/04 10:28:56;;;;;;;6.47;3.40;;;16.70;99.90;;;;;;5083851;28;20048;-79
2023/05/04 10:31:22;;;;;;;;;;;16.80;99.90;;;;;;5028168;28;20488;-81
2023/05/04 10:33:47;;;;;;;5.20;2.80;;;16.80;99.90;;;;;;5046342;28;19917;-82
2023/05/04 10:36:13;;;;;;;3.95;2.72;;;16.90;99.90;;;;;;5041485;28;20048;-79
2023/05/04 10:38:40;;;;;;;12.82;3.13;;;16.90;99.90;;;;;;5039536;28;20048;-81
2023/05/04 10:41:16;;;;;;;7.63;3.15;;;16.90;99.90;;;;;;5045892;28;20045;-79
2023/05/04 10:43:47;;;;;;;5.85;2.80;;;16.90;99.90;;;;;;5046893;28;20040;-83
2023/05/04 10:46:20;;;;;;;10.27;3.00;;;16.90;99.90;;;;;;5044745;28;20132;-82
2023/05/04 10:48:46;;;;;;;11.10;2.70;;;17.00;99.90;;;;;;5041845;28;20557;-81
2023/05/04 10:51:20;;;;;;;5.22;2.90;;;17.00;99.90;;;;;;5040269;28;20064;-82
2023/05/04 10:53:46;;;;;;;6.13;2.90;;;17.10;99.90;;;;;;5038130;28;20045;-82
2023/05/04 10:56:23;;;;;;;9.50;3.63;;;17.10;99.90;;;;;;5040755;28;20136;-82
2023/05/04 10:58:49;;;;;;;7.25;3.15;;;17.20;99.90;;;;;;5040626;28;20045;-83
2023/05/04 11:01:15;;;;;;;5.55;2.40;;;17.30;99.90;;;;;;5040822;28;20044;-82
2023/05/04 11:03:41;;;;;;;5.60;2.58;;;17.20;99.20;;;;;;5031967;28;20041;-80
2023/05/04 11:06:15;;;;;;;7.55;2.72;;;17.30;98.90;;;;;;5058740;28;20040;-81
2023/05/04 11:08:41;;;;;;;7.25;3.08;;;17.40;99.50;;;;;;5046574;28;20060;-81
2023/05/04 11:11:07;;;;;;;5.28;2.72;;;17.40;99.90;;;;;;5038894;28;20045;-81
2023/05/04 11:13:33;;;;;;;5.15;2.47;;;17.50;99.90;;;;;;5041093;28;20090;-82
2023/05/04 11:15:59;;;;;;;7.35;2.92;;;17.50;99.90;;;;;;5042553;28;20048;-81
2023/05/04 11:18:36;;;;;;;7.65;3.35;;;17.50;99.90;;;;;;5039104;28;20041;-82
2023/05/04 11:21:02;;;;;;;4.30;2.88;;;17.40;99.70;;;;;;5040960;28;20053;-82
2023/05/04 11:23:28;;;;;;;6.07;2.50;;;17.50;99.90;;;;;;5041031;28;20063;-82
2023/05/04 11:25:55;;;;;;;5.80;2.20;;;17.60;99.90;;;;;;5041375;28;20041;-82
2023/05/04 11:28:34;;;;;;;8.85;3.25;;;17.60;98.50;;;;;;5041950;28;20051;-83
2023/05/04 11:31:11;;;;;;;5.93;2.83;;;17.70;98.80;;;;;;5040338;28;20124;-82
2023/05/04 11:33:36;;;;;;;9.32;2.60;;;17.80;99.00;;;;;;5039229;28;20726;-81
2023/05/04 11:36:02;;;;;;;5.88;2.60;;;17.80;98.20;;;;;;5042715;28;20045;-82
2023/05/04 11:38:28;;;;;;;7.22;2.55;;;17.90;98.90;;;;;;5039986;28;20037;-83
2023/05/04 11:40:54;;;;;;;3.92;2.33;;;18.00;98.50;;;;;;5041087;28;20045;-82
2023/05/04 11:43:20;;;;;;;5.18;2.25;;;18.00;97.70;;;;;;5042934;28;20450;-82
2023/05/04 11:45:47;;;;;;;7.43;2.50;;;18.10;97.90;;;;;;5040553;28;20052;-83
2023/05/04 11:48:13;;;;;;;10.38;3.15;;;18.20;98.30;;;;;;5040442;28;20052;-81
2023/05/04 11:50:38;;;;;;;6.50;2.97;;;18.20;97.70;;;;;;5037875;28;20519;-84
2023/05/04 11:53:12;;;;;;;6.82;3.20;;;18.30;97.80;;;;;;5040155;28;20041;-82
2023/05/04 11:55:38;;;;;;;6.78;2.70;;;18.30;98.00;;;;;;5037269;28;20045;-83
2023/05/04 11:58:06;;;;;;;8.98;3.05;;;18.40;98.70;;;;;;5040780;28;20069;-82
2023/05/04 12:00:42;;;;;;;7.10;2.70;;;18.40;98.20;;;;;;5038835;28;20063;-82
2023/05/04 12:03:13;;;;;;;3.65;2.00;;;18.40;96.00;;;;;;5036481;28;20037;-82
2023/05/04 12:05:49;;;;;;;5.88;3.20;;;18.40;95.60;;;;;;5056804;28;20037;-82
2023/05/04 12:08:30;;;;;;;4.95;2.50;;;18.40;97.30;;;;;;5044028;28;20045;-82
2023/05/04 12:11:20;;;;;;;6.68;2.70;;;18.50;97.10;;;;;;5042338;28;20048;-81
2023/05/04 12:13:48;;;;;;;4.53;2.30;;;18.60;96.30;;;;;;5037761;28;20054;-81
2023/05/04 12:16:18;;;;;;;10.82;4.00;;;18.70;96.40;;;;;;5037844;28;20523;-82
2023/05/04 12:18:45;;;;;;;9.20;2.10;;;18.70;95.80;;;;;;5036432;28;20048;-81
2023/05/04 12:21:13;;;;;;;6.90;2.40;;;18.80;95.60;;;;;;5039643;28;20499;-82
2023/05/04 12:23:40;;;;;;;3.67;2.60;;;18.80;95.80;;;;;;5040030;28;20064;-83
2023/05/04 12:26:07;;;;;;;4.63;1.95;;;18.70;94.70;;;;;;5040068;28;20050;-83
2023/05/04 12:28:34;;;;;;;4.72;2.70;;;18.60;95.50;;;;;;5039198;28;20042;-82
2023/05/04 12:31:00;;;;;;;7.13;2.63;;;18.60;96.70;;;;;;5044390;28;20037;-82
2023/05/04 12:33:26;;;;;;;7.60;2.30;;;18.70;96.80;;;;;;5038829;28;20612;-82
2023/05/04 12:35:52;;;;;;;5.53;2.20;;;18.80;95.60;;;;;;5038362;28;20487;-83
2023/05/04 12:38:17;;;;;;;11.02;2.45;;;18.90;95.30;;;;;;5041673;28;20041;-82
2023/05/04 12:40:43;;;;;;;4.40;1.98;;;18.80;94.80;;;;;;5041352;28;20048;-82
2023/05/04 12:43:09;;;;;;;5.70;1.95;;;18.70;94.60;;;;;;5036758;28;20072;-83
2023/05/04 12:45:35;;;;;;;3.83;1.90;;;18.70;94.70;;;;;;5039654;28;20049;-82
2023/05/04 12:48:01;;;;;;;3.95;2.05;;;18.60;93.50;;;;;;5035968;28;20053;-82